Time;durP1;ratioP1;P1;durP2;ratioP2;P2;SDS_P1;SDS_P2;PMS_P1;PMS_P2;Temp;Humidity;BMP_temperature;BMP_pressure;BME280_temperature;BME280_humidity;BME280_pressure;Samples;Min_cycle;Max_cycle;Signal;HPM_P1;HPM_P2
2022/12/21 00:00:18;;;;;;;11.63;7.35;;;13.40;99.90;;;;;;5072206;28;20048;-70
2022/12/21 00:02:43;;;;;;;11.50;7.60;;;13.40;99.90;;;;;;5075019;28;20101;-70
2022/12/21 00:05:09;;;;;;;13.40;8.05;;;13.60;99.90;;;;;;5073427;28;20436;-70
2022/12/21 00:07:35;;;;;;;11.05;6.88;;;13.40;99.90;;;;;;5054789;28;20045;-71
2022/12/21 00:10:01;;;;;;;11.75;7.28;;;13.80;99.90;;;;;;5046998;28;20048;-70
2022/12/21 00:12:27;;;;;;;14.48;8.48;;;;;;;;;;5074807;28;20044;-71
2022/12/21 00:14:53;;;;;;;13.70;7.78;;;13.60;99.90;;;;;;5074489;28;20114;-70
2022/12/21 00:17:18;;;;;;;12.02;7.85;;;13.60;99.90;;;;;;5074724;28;20048;-69
2022/12/21 00:19:44;;;;;;;15.10;7.88;;;13.30;99.90;;;;;;5069920;28;20040;-69
2022/12/21 00:22:10;;;;;;;12.18;7.45;;;;;;;;;;5074348;28;20041;-69
2022/12/21 00:24:36;;;;;;;12.57;7.45;;;13.60;99.90;;;;;;5053190;28;20430;-70
2022/12/21 00:27:02;;;;;;;14.25;7.18;;;13.30;99.90;;;;;;5034279;28;20112;-70
2022/12/21 00:29:28;;;;;;;12.77;7.13;;;13.50;99.90;;;;;;5034011;28;20052;-70
2022/12/21 00:31:53;;;;;;;12.20;7.30;;;13.70;99.90;;;;;;5065748;28;20047;-70
2022/12/21 00:34:21;;;;;;;12.30;7.82;;;13.50;99.90;;;;;;5073176;28;20037;-70
2022/12/21 00:36:47;;;;;;;12.57;7.45;;;13.60;99.90;;;;;;5073146;28;20090;-70
2022/12/21 00:39:13;;;;;;;13.18;7.78;;;13.50;99.90;;;;;;5074130;28;20512;-70
2022/12/21 00:41:39;;;;;;;13.23;7.85;;;13.50;99.90;;;;;;5050570;28;20087;-69
2022/12/21 00:44:05;;;;;;;12.43;7.85;;;13.50;99.90;;;;;;5034115;28;20399;-70
2022/12/21 00:46:31;;;;;;;11.75;7.47;;;13.60;99.90;;;;;;5033986;28;20049;-69
2022/12/21 00:48:58;;;;;;;13.15;7.80;;;13.40;99.90;;;;;;5033684;28;20107;-70
2022/12/21 00:51:24;;;;;;;13.90;7.53;;;13.30;99.90;;;;;;5034071;28;20087;-71
2022/12/21 00:53:51;;;;;;;13.13;7.78;;;13.70;99.90;;;;;;5032736;28;20376;-70
2022/12/21 00:56:17;;;;;;;10.98;6.90;;;13.50;99.90;;;;;;5033460;28;20050;-69
2022/12/21 00:58:43;;;;;;;14.40;8.18;;;13.60;99.90;;;;;;5043981;28;20049;-69
2022/12/21 01:01:16;;;;;;;12.30;7.65;;;13.60;99.90;;;;;;5059389;28;20576;-70
2022/12/21 01:03:42;;;;;;;13.55;7.35;;;13.70;99.90;;;;;;5071169;28;20060;-70
2022/12/21 01:06:18;;;;;;;12.63;6.95;;;13.60;99.90;;;;;;5073465;28;20048;-70
2022/12/21 01:08:44;;;;;;;13.55;8.10;;;13.30;99.90;;;;;;5073391;28;20487;-70
2022/12/21 01:11:11;;;;;;;11.48;7.07;;;13.40;99.90;;;;;;5071118;28;20086;-70
2022/12/21 01:13:38;;;;;;;12.45;7.85;;;13.50;99.90;;;;;;5073672;28;20040;-70
2022/12/21 01:16:09;;;;;;;12.77;7.53;;;13.60;99.90;;;;;;5045591;28;20044;-69
2022/12/21 01:18:35;;;;;;;11.57;6.85;;;13.40;99.90;;;;;;5032143;28;20053;-70
2022/12/21 01:21:01;;;;;;;11.38;6.97;;;13.40;99.90;;;;;;5039933;28;20044;-70
2022/12/21 01:23:27;;;;;;;10.25;5.97;;;13.50;99.90;;;;;;5072497;28;20434;-70
2022/12/21 01:25:52;;;;;;;10.45;6.93;;;13.50;99.90;;;;;;5054460;28;20133;-70
2022/12/21 01:28:18;;;;;;;10.45;5.90;;;13.70;99.90;;;;;;5053055;28;20604;-70
2022/12/21 01:30:44;;;;;;;10.38;6.15;;;;;;;;;;5052638;28;20051;-69
2022/12/21 01:33:14;;;;;;;10.02;6.15;;;13.70;99.90;;;;;;5042771;28;20383;-70
2022/12/21 01:35:40;;;;;;;9.27;5.95;;;13.50;99.90;;;;;;5033443;28;20053;-70
2022/12/21 01:38:07;;;;;;;10.85;7.03;;;13.40;99.90;;;;;;5033461;28;20432;-70
2022/12/21 01:40:32;;;;;;;11.18;6.45;;;13.50;99.90;;;;;;5034591;28;20053;-70
2022/12/21 01:42:58;;;;;;;12.23;6.53;;;13.80;99.90;;;;;;5055843;28;20148;-70
2022/12/21 01:45:35;;;;;;;10.43;6.22;;;13.30;99.90;;;;;;5073246;28;20059;-70
2022/12/21 01:48:03;;;;;;;11.20;6.60;;;13.80;99.90;;;;;;5072050;28;20128;-70
2022/12/21 01:50:39;;;;;;;8.65;5.82;;;13.60;99.90;;;;;;5020588;28;20045;-68
2022/12/21 01:53:30;;;;;;;10.32;6.50;;;13.30;99.90;;;;;;5033037;28;20124;-70
2022/12/21 01:55:57;;;;;;;11.10;6.28;;;13.50;99.90;;;;;;5025016;28;20388;-70
2022/12/21 01:58:24;;;;;;;10.52;6.00;;;13.50;99.90;;;;;;5032028;28;20049;-70
2022/12/21 02:00:50;;;;;;;10.82;6.30;;;;;;;;;;5022186;28;20497;-70
2022/12/21 02:03:18;;;;;;;10.10;6.25;;;;;;;;;;5069919;28;20061;-71
2022/12/21 02:05:48;;;;;;;9.00;5.75;;;13.50;99.90;;;;;;5047039;28;20110;-70
2022/12/21 02:08:14;;;;;;;10.88;6.65;;;13.50;99.90;;;;;;5032162;28;20498;-70
2022/12/21 02:10:40;;;;;;;10.05;6.40;;;13.40;99.90;;;;;;5034735;28;20117;-70
2022/12/21 02:13:09;;;;;;;9.45;6.07;;;13.60;99.90;;;;;;5070803;28;20044;-70
2022/12/21 02:15:59;;;;;;;8.77;5.88;;;13.30;99.90;;;;;;5054925;28;20127;-70
2022/12/21 02:18:49;;;;;;;9.20;5.55;;;13.40;99.90;;;;;;5072677;28;20080;-70
2022/12/21 02:21:21;;;;;;;10.10;5.82;;;13.30;99.90;;;;;;5050708;28;20127;-71
2022/12/21 02:24:24;;;;;;;10.10;6.32;;;13.60;99.90;;;;;;5058756;28;20524;-70
2022/12/21 02:27:17;;;;;;;9.55;6.05;;;13.50;99.90;;;;;;5072426;28;20052;-70
2022/12/21 02:30:05;;;;;;;9.40;6.07;;;13.40;99.90;;;;;;5073475;28;20086;-70
2022/12/21 02:32:45;;;;;;;8.10;5.20;;;13.60;99.90;;;;;;5069269;28;20075;-70
2022/12/21 02:35:23;;;;;;;8.52;5.63;;;13.70;99.90;;;;;;5075342;28;20095;-70
2022/12/21 02:38:24;;;;;;;8.48;5.25;;;13.60;99.90;;;;;;5074420;28;20041;-69
2022/12/21 02:40:56;;;;;;;9.65;5.90;;;;;;;;;;5050328;28;20060;-72
2022/12/21 02:46:35;;;;;;;11.20;6.10;;;13.30;99.90;;;;;;5074883;28;20510;-70
2022/12/21 02:49:33;;;;;;;8.52;5.35;;;13.50;99.90;;;;;;5075042;28;20056;-70
2022/12/21 02:52:17;;;;;;;9.85;5.63;;;13.50;99.90;;;;;;5057715;28;20041;-71
2022/12/21 02:54:43;;;;;;;;;;;13.50;99.90;;;;;;5075120;28;20084;-70
2022/12/21 02:57:09;;;;;;;10.20;6.18;;;13.60;99.90;;;;;;5061851;28;19979;-70
2022/12/21 02:59:41;;;;;;;11.20;5.97;;;13.60;99.90;;;;;;5034926;28;20065;-69
2022/12/21 03:02:30;;;;;;;10.50;6.10;;;13.50;99.90;;;;;;5045785;28;20048;-69
2022/12/21 03:05:12;;;;;;;10.45;6.00;;;13.50;99.90;;;;;;5033469;28;20127;-69
2022/12/21 03:07:41;;;;;;;8.60;5.80;;;13.40;99.90;;;;;;5075672;28;20056;-69
2022/12/21 03:10:19;;;;;;;8.63;5.63;;;13.60;99.90;;;;;;5074608;28;20267;-69
2022/12/21 03:12:50;;;;;;;9.77;6.05;;;13.60;99.90;;;;;;5073284;28;20087;-70
2022/12/21 03:15:34;;;;;;;10.05;6.13;;;13.40;99.90;;;;;;5043168;28;20045;-70
2022/12/21 03:18:06;;;;;;;9.00;5.95;;;13.60;99.90;;;;;;5035357;28;20089;-70
2022/12/21 03:20:48;;;;;;;9.55;5.88;;;13.60;99.90;;;;;;5035981;28;20471;-71
2022/12/21 03:23:32;;;;;;;9.80;6.07;;;13.80;99.90;;;;;;5059470;28;20062;-70
2022/12/21 03:26:18;;;;;;;10.48;6.35;;;13.80;99.90;;;;;;5074946;28;20055;-70
2022/12/21 03:28:44;;;;;;;9.90;6.25;;;13.60;99.90;;;;;;5074277;28;20072;-70
2022/12/21 03:31:15;;;;;;;9.68;5.80;;;13.70;99.90;;;;;;5062394;28;20056;-71
2022/12/21 03:33:47;;;;;;;9.32;5.68;;;13.60;99.90;;;;;;5046869;28;20534;-70
2022/12/21 03:36:44;;;;;;;8.55;5.45;;;13.50;99.90;;;;;;5055057;28;20045;-69
2022/12/21 03:39:12;;;;;;;9.73;5.60;;;13.50;99.90;;;;;;5053792;28;20120;-69
2022/12/21 03:41:45;;;;;;;9.32;5.80;;;13.50;99.90;;;;;;5063501;28;20054;-70
2022/12/21 03:44:13;;;;;;;8.73;5.07;;;13.60;99.90;;;;;;5072268;28;20056;-70
2022/12/21 03:46:55;;;;;;;9.38;5.80;;;13.70;99.90;;;;;;5071014;28;20498;-69
2022/12/21 03:49:29;;;;;;;8.73;5.32;;;13.70;99.90;;;;;;5040850;28;20038;-70
2022/12/21 03:52:01;;;;;;;8.88;5.53;;;13.80;99.90;;;;;;5034435;28;20042;-70
2022/12/21 03:54:30;;;;;;;9.18;5.38;;;13.50;99.90;;;;;;5033910;28;20045;-70
2022/12/21 03:56:56;;;;;;;9.23;5.70;;;13.70;99.90;;;;;;5034835;28;20099;-70
2022/12/21 03:59:22;;;;;;;9.20;5.68;;;13.80;99.90;;;;;;5034937;28;20037;-69
2022/12/21 04:02:26;;;;;;;9.82;5.25;;;13.70;99.90;;;;;;5034185;28;20113;-69
2022/12/21 04:05:00;;;;;;;10.70;5.85;;;13.60;99.90;;;;;;5061121;28;20406;-70
2022/12/21 04:07:26;;;;;;;9.80;5.75;;;13.70;99.90;;;;;;5033147;28;20053;-70
2022/12/21 04:09:59;;;;;;;9.80;5.53;;;13.60;99.90;;;;;;5034972;28;20111;-70
2022/12/21 04:12:37;;;;;;;10.70;6.07;;;13.40;99.90;;;;;;5070202;28;20076;-70
2022/12/21 04:15:25;;;;;;;8.50;5.05;;;13.60;99.90;;;;;;5068818;28;20048;-70
2022/12/21 04:17:51;;;;;;;10.43;5.80;;;13.70;99.90;;;;;;5073669;28;20076;-70
2022/12/21 04:20:24;;;;;;;8.73;5.20;;;13.70;99.90;;;;;;5073643;28;20090;-70
2022/12/21 04:28:21;;;;;;;10.82;5.93;;;13.40;99.90;;;;;;5033175;28;20048;-70
2022/12/21 04:30:47;;;;;;;9.43;5.57;;;13.60;99.90;;;;;;5032069;28;20053;-70
2022/12/21 04:33:15;;;;;;;10.25;5.50;;;13.60;99.90;;;;;;5033709;28;20103;-70
2022/12/21 04:37:30;;;;;;;9.73;5.68;;;13.60;99.90;;;;;;5062013;28;20041;-70
2022/12/21 04:38:27;;;;;;;8.88;5.25;;;13.60;99.90;;;;;;5073066;28;20072;-70
2022/12/21 04:40:53;;;;;;;11.50;5.93;;;13.80;99.90;;;;;;5032045;28;20471;-70
2022/12/21 04:43:19;;;;;;;9.90;5.68;;;;;;;;;;5033017;28;20053;-70
2022/12/21 04:45:45;;;;;;;10.40;6.25;;;13.70;99.90;;;;;;5061371;28;20086;-70
2022/12/21 04:48:10;;;;;;;9.18;5.28;;;13.50;99.90;;;;;;5073168;28;20044;-70
2022/12/21 04:50:38;;;;;;;9.30;5.55;;;13.50;99.90;;;;;;5073103;28;20074;-70
2022/12/21 04:53:04;;;;;;;9.43;5.45;;;13.50;99.90;;;;;;5073161;28;20082;-70
2022/12/21 04:55:30;;;;;;;9.07;4.95;;;;;;;;;;5067840;28;20063;-70
2022/12/21 04:57:56;;;;;;;9.48;5.57;;;13.80;99.90;;;;;;5032719;28;20132;-70
2022/12/21 05:00:22;;;;;;;9.70;5.68;;;13.70;99.90;;;;;;5060073;28;20467;-70
2022/12/21 05:02:48;;;;;;;10.40;6.13;;;;;;;;;;5072667;28;20047;-70
2022/12/21 05:05:14;;;;;;;9.00;5.05;;;13.60;99.90;;;;;;5029603;28;1172221;-70
2022/12/21 05:07:40;;;;;;;9.52;5.60;;;13.60;99.90;;;;;;5072570;28;20043;-70
2022/12/21 05:10:06;;;;;;;9.27;5.38;;;13.60;99.90;;;;;;5073724;28;20506;-70
2022/12/21 05:12:32;;;;;;;10.48;5.53;;;13.60;99.90;;;;;;5069782;28;20051;-70
2022/12/21 05:14:58;;;;;;;8.95;5.10;;;13.70;99.90;;;;;;5033074;28;20494;-69
2022/12/21 05:17:24;;;;;;;8.40;4.88;;;;;;;;;;5073457;28;20036;-70
2022/12/21 05:19:50;;;;;;;10.38;5.13;;;;;;;;;;5073343;28;20127;-69
2022/12/21 05:22:17;;;;;;;8.15;5.15;;;;;;;;;;5073521;28;20051;-69
2022/12/21 05:24:46;;;;;;;9.55;5.38;;;13.50;99.90;;;;;;5073970;28;20059;-70
2022/12/21 05:27:12;;;;;;;9.80;5.10;;;;;;;;;;5071396;28;20052;-69
2022/12/21 05:29:39;;;;;;;9.57;4.95;;;;;;;;;;5065169;28;20037;-69
2022/12/21 05:32:05;;;;;;;8.73;4.60;;;13.80;99.90;;;;;;5056763;28;20049;-69
2022/12/21 05:34:30;;;;;;;8.48;4.60;;;13.50;99.90;;;;;;5065964;28;20040;-69
2022/12/21 05:36:56;;;;;;;8.20;4.43;;;13.70;99.90;;;;;;5072151;28;20045;-70
2022/12/21 05:39:22;;;;;;;9.73;4.63;;;13.50;99.90;;;;;;5073365;28;20050;-71
2022/12/21 05:41:47;;;;;;;8.10;4.57;;;13.60;99.90;;;;;;5073374;28;20044;-70
2022/12/21 05:44:13;;;;;;;8.23;5.05;;;13.60;99.90;;;;;;5073003;28;20072;-71
2022/12/21 05:46:39;;;;;;;8.85;4.95;;;13.70;99.90;;;;;;5066507;28;20056;-71
2022/12/21 05:49:05;;;;;;;7.97;4.45;;;13.50;99.90;;;;;;5033034;28;20037;-70
2022/12/21 05:51:31;;;;;;;8.00;4.53;;;13.80;99.90;;;;;;5063836;28;20040;-70
2022/12/21 05:53:56;;;;;;;8.88;5.13;;;13.60;99.90;;;;;;5072913;28;20159;-70
2022/12/21 05:56:22;;;;;;;7.82;4.60;;;13.70;99.90;;;;;;5070671;28;20047;-70
2022/12/21 05:58:49;;;;;;;7.90;4.18;;;13.60;99.90;;;;;;5070670;28;20050;-69
2022/12/21 06:01:15;;;;;;;8.65;4.70;;;13.80;99.90;;;;;;5073263;28;20486;-71
2022/12/21 06:03:41;;;;;;;8.45;4.68;;;;;;;;;;5068294;28;20095;-71
2022/12/21 06:06:14;;;;;;;8.30;4.57;;;13.60;99.90;;;;;;5042405;28;20072;-70
2022/12/21 06:08:40;;;;;;;8.88;4.53;;;13.40;99.90;;;;;;5074816;28;20037;-70
2022/12/21 06:11:08;;;;;;;7.57;4.55;;;13.80;99.90;;;;;;5075656;28;20045;-70
2022/12/21 06:13:33;;;;;;;7.70;4.05;;;13.50;99.90;;;;;;5076564;28;20475;-70
2022/12/21 06:16:16;;;;;;;8.10;4.30;;;13.60;99.90;;;;;;5073663;28;20106;-70
2022/12/21 06:18:42;;;;;;;8.25;4.40;;;13.50;99.90;;;;;;5076807;28;20452;-69
2022/12/21 06:21:09;;;;;;;7.90;4.03;;;13.70;99.90;;;;;;5063335;28;20041;-70
2022/12/21 06:23:35;;;;;;;7.88;4.70;;;13.70;99.90;;;;;;5036481;28;20049;-69
2022/12/21 06:26:02;;;;;;;7.72;4.65;;;13.80;99.90;;;;;;5065704;28;20052;-69
2022/12/21 06:28:28;;;;;;;7.70;4.35;;;13.50;99.90;;;;;;5074157;28;20429;-70
2022/12/21 06:30:54;;;;;;;7.38;4.00;;;13.80;99.90;;;;;;5076304;28;20040;-70
2022/12/21 06:33:21;;;;;;;6.65;3.95;;;13.60;99.90;;;;;;5075279;28;20185;-70
2022/12/21 06:35:47;;;;;;;7.65;4.45;;;13.70;99.90;;;;;;5076532;28;20457;-70
2022/12/21 06:38:13;;;;;;;8.00;4.55;;;13.70;99.90;;;;;;5059979;28;20102;-69
2022/12/21 06:40:38;;;;;;;8.23;4.85;;;13.60;99.90;;;;;;5036139;28;20406;-69
2022/12/21 06:43:04;;;;;;;8.27;4.60;;;13.30;99.90;;;;;;5036096;28;20041;-69
2022/12/21 06:45:30;;;;;;;7.72;4.28;;;13.30;99.90;;;;;;5035924;28;20055;-69
2022/12/21 06:47:56;;;;;;;8.82;5.38;;;13.50;99.90;;;;;;5052849;28;20098;-69
2022/12/21 06:50:22;;;;;;;8.35;4.10;;;13.70;99.90;;;;;;5075826;28;20514;-70
2022/12/21 06:52:48;;;;;;;9.02;4.75;;;13.40;99.90;;;;;;5074668;28;20040;-69
2022/12/21 06:55:14;;;;;;;7.90;4.38;;;14.00;99.90;;;;;;5061607;28;20125;-69
2022/12/21 06:57:40;;;;;;;9.02;4.88;;;;;;;;;;5056432;28;20173;-69
2022/12/21 07:00:06;;;;;;;7.88;4.30;;;13.60;99.90;;;;;;5055873;28;20131;-69
2022/12/21 07:02:32;;;;;;;8.82;4.82;;;13.80;99.90;;;;;;5055956;28;20068;-70
2022/12/21 07:04:58;;;;;;;8.43;4.88;;;13.70;99.90;;;;;;5070387;28;20084;-70
2022/12/21 07:07:24;;;;;;;8.75;4.68;;;13.50;99.90;;;;;;5075543;28;20049;-70
2022/12/21 07:09:50;;;;;;;9.35;5.00;;;13.90;99.90;;;;;;5072940;28;20037;-70
2022/12/21 07:12:15;;;;;;;8.43;4.75;;;13.60;99.90;;;;;;5055112;28;20108;-70
2022/12/21 07:14:41;;;;;;;8.00;4.70;;;;;;;;;;5035750;28;20107;-69
2022/12/21 07:17:07;;;;;;;8.98;5.28;;;13.40;99.90;;;;;;5035765;28;20045;-70
2022/12/21 07:19:34;;;;;;;9.57;4.70;;;13.60;99.90;;;;;;5042795;28;20086;-70
2022/12/21 07:22:00;;;;;;;9.02;5.18;;;13.70;99.90;;;;;;5075622;28;20193;-69
2022/12/21 07:24:26;;;;;;;9.98;5.30;;;13.90;99.90;;;;;;5075551;28;20041;-70
2022/12/21 07:26:51;;;;;;;8.70;5.03;;;13.60;99.90;;;;;;5074996;28;20071;-70
2022/12/21 07:29:17;;;;;;;9.45;4.80;;;13.80;99.90;;;;;;5053033;28;20042;-71
2022/12/21 07:31:43;;;;;;;11.00;5.70;;;13.60;99.90;;;;;;5075089;28;20417;-71
2022/12/21 07:34:09;;;;;;;11.07;5.55;;;;;;;;;;5074102;28;20044;-70
2022/12/21 07:36:35;;;;;;;10.80;5.65;;;;;;;;;;5067640;28;20051;-68
2022/12/21 07:39:01;;;;;;;8.98;5.28;;;13.60;99.50;;;;;;5075193;28;20048;-69
2022/12/21 07:41:27;;;;;;;9.25;5.25;;;13.60;99.90;;;;;;5074910;28;20402;-70
2022/12/21 07:43:53;;;;;;;10.02;5.35;;;13.80;99.90;;;;;;5075192;28;20075;-70
2022/12/21 07:46:18;;;;;;;9.23;5.40;;;13.80;99.90;;;;;;5058891;28;20103;-70
2022/12/21 07:48:44;;;;;;;11.25;5.88;;;13.60;99.80;;;;;;5067770;28;20033;-70
2022/12/21 07:51:10;;;;;;;11.60;5.85;;;13.60;99.90;;;;;;5074730;28;20040;-69
2022/12/21 07:53:36;;;;;;;9.38;5.82;;;13.90;99.90;;;;;;5074976;28;20068;-69
2022/12/21 07:56:07;;;;;;;9.98;5.90;;;13.80;99.90;;;;;;5074455;28;20052;-69
2022/12/21 07:58:34;;;;;;;11.63;6.88;;;13.80;99.90;;;;;;5072070;28;20087;-69
2022/12/21 08:01:09;;;;;;;11.15;6.78;;;13.60;99.90;;;;;;5074887;28;20052;-69
2022/12/21 08:03:35;;;;;;;11.52;6.82;;;13.20;99.90;;;;;;5059661;28;20419;-70
2022/12/21 08:06:01;;;;;;;12.45;7.10;;;13.70;99.90;;;;;;5074310;28;20055;-70
2022/12/21 08:08:27;;;;;;;12.82;7.10;;;;;;;;;;5069226;28;20406;-70
2022/12/21 08:10:53;;;;;;;11.68;7.00;;;13.60;99.90;;;;;;5074284;28;20355;-70
2022/12/21 08:13:19;;;;;;;13.73;7.25;;;13.70;99.90;;;;;;5074142;28;20482;-70
2022/12/21 08:15:45;;;;;;;13.93;7.53;;;;;;;;;;5074126;28;20393;-71
2022/12/21 08:18:11;;;;;;;13.95;7.82;;;;;;;;;;5071765;28;20041;-74
2022/12/21 08:20:37;;;;;;;13.95;7.40;;;;;;;;;;5052696;28;20049;-72
2022/12/21 08:23:04;;;;;;;11.88;7.18;;;;;;;;;;5034508;28;20545;-70
2022/12/21 08:25:30;;;;;;;12.68;7.70;;;13.80;99.70;;;;;;5032738;28;20049;-66
2022/12/21 08:27:56;;;;;;;13.95;7.90;;;;;;;;;;5034231;28;20037;-69
2022/12/21 08:30:22;;;;;;;13.88;8.00;;;13.90;99.70;;;;;;5072494;28;20060;-69
2022/12/21 08:32:47;;;;;;;13.80;7.78;;;13.90;99.90;;;;;;5073681;28;20490;-70
2022/12/21 08:35:13;;;;;;;12.75;7.35;;;13.80;99.90;;;;;;5073794;28;20098;-71
2022/12/21 08:37:39;;;;;;;12.95;7.53;;;13.80;99.60;;;;;;5052626;28;20037;-69
2022/12/21 08:40:06;;;;;;;13.98;7.80;;;13.70;99.90;;;;;;5064583;28;20119;-71
2022/12/21 08:42:32;;;;;;;14.35;8.05;;;13.90;99.90;;;;;;5071955;28;20454;-67
2022/12/21 08:44:57;;;;;;;13.40;7.55;;;14.00;99.90;;;;;;5073944;28;20083;-72
2022/12/21 08:47:23;;;;;;;14.48;8.18;;;13.90;99.90;;;;;;5073663;28;20052;-71
2022/12/21 08:49:49;;;;;;;15.93;8.27;;;13.90;99.90;;;;;;5071427;28;20035;-71
2022/12/21 08:52:15;;;;;;;15.45;8.23;;;13.90;99.90;;;;;;5073900;28;20055;-69
2022/12/21 08:54:40;;;;;;;13.35;8.18;;;13.90;99.90;;;;;;5051560;28;20479;-67
2022/12/21 08:57:06;;;;;;;14.65;8.38;;;14.10;99.90;;;;;;5033562;28;20037;-70
2022/12/21 08:59:32;;;;;;;14.88;8.82;;;13.70;99.90;;;;;;5050298;28;20041;-70
2022/12/21 09:01:58;;;;;;;16.63;9.52;;;13.80;99.90;;;;;;5072944;28;20044;-67
2022/12/21 09:04:24;;;;;;;17.13;9.07;;;13.90;99.90;;;;;;5073303;28;20059;-69
2022/12/21 09:06:49;;;;;;;17.50;9.13;;;13.80;99.90;;;;;;5072241;28;20565;-69
2022/12/21 09:09:15;;;;;;;16.25;9.23;;;13.70;99.90;;;;;;5070863;28;20120;-65
2022/12/21 09:11:41;;;;;;;15.85;9.82;;;13.90;99.90;;;;;;5051783;28;20049;-69
2022/12/21 09:14:07;;;;;;;19.45;9.68;;;13.90;99.90;;;;;;5033791;28;20037;-68
2022/12/21 09:16:33;;;;;;;19.27;9.40;;;;;;;;;;5033403;28;20454;-71
2022/12/21 09:18:59;;;;;;;19.55;10.00;;;13.80;99.90;;;;;;5033630;28;20041;-69
2022/12/21 09:21:24;;;;;;;18.92;10.52;;;14.20;99.90;;;;;;5069092;28;20788;-68
2022/12/21 09:23:51;;;;;;;21.35;10.23;;;13.90;99.90;;;;;;5073137;28;20040;-67
2022/12/21 09:26:17;;;;;;;19.98;10.45;;;13.90;99.90;;;;;;5071649;28;20049;-69
2022/12/21 09:28:43;;;;;;;17.30;10.20;;;13.70;99.90;;;;;;5068093;28;20047;-65
2022/12/21 09:31:17;;;;;;;20.85;10.68;;;13.70;99.90;;;;;;5070852;28;20059;-71
2022/12/21 09:33:43;;;;;;;17.83;10.38;;;14.00;99.90;;;;;;5069864;28;20490;-70
2022/12/21 09:36:09;;;;;;;19.33;11.02;;;13.90;99.90;;;;;;5073360;28;20056;-69
2022/12/21 09:38:35;;;;;;;20.60;10.75;;;13.70;99.90;;;;;;5073471;28;20112;-61
2022/12/21 09:41:25;;;;;;;21.60;10.68;;;13.80;98.60;;;;;;5067398;28;20478;-64
2022/12/21 09:44:00;;;;;;;19.90;10.90;;;13.70;99.90;;;;;;5075378;28;20044;-68
2022/12/21 09:46:26;;;;;;;18.48;10.32;;;14.20;99.90;;;;;;5062751;28;20132;-71
2022/12/21 09:48:57;;;;;;;19.00;10.68;;;13.90;99.90;;;;;;5072398;28;20064;-69
2022/12/21 09:51:27;;;;;;;20.95;10.48;;;13.90;99.90;;;;;;5069685;28;20037;-65
2022/12/21 09:54:02;;;;;;;20.67;10.70;;;14.00;99.90;;;;;;5060676;28;20496;-67
2022/12/21 09:56:28;;;;;;;22.13;11.15;;;13.90;99.90;;;;;;5077103;28;20410;-65
2022/12/21 09:58:55;;;;;;;21.08;11.18;;;14.00;99.90;;;;;;5077320;28;20379;-69
2022/12/21 10:01:27;;;;;;;19.77;10.15;;;14.00;98.50;;;;;;5075404;28;20044;-70
2022/12/21 10:04:21;;;;;;;20.23;10.63;;;14.20;98.70;;;;;;5036659;28;20062;-70
2022/12/21 10:07:24;;;;;;;23.20;11.40;;;14.00;98.50;;;;;;5054940;28;20048;-66
2022/12/21 10:09:53;;;;;;;20.13;10.30;;;14.20;99.90;;;;;;5074515;28;20473;-68
2022/12/21 10:12:56;;;;;;;19.58;10.77;;;14.20;98.50;;;;;;5076356;28;20446;-67
2022/12/21 10:15:33;;;;;;;24.35;11.55;;;14.00;98.60;;;;;;5076098;28;20044;-69
2022/12/21 10:18:12;;;;;;;18.40;10.02;;;14.20;99.90;;;;;;5071331;28;20047;-69
2022/12/21 10:20:46;;;;;;;21.63;10.82;;;14.10;98.40;;;;;;5065055;28;20080;-70
2022/12/21 10:23:25;;;;;;;19.15;10.43;;;14.20;99.10;;;;;;5075570;28;20067;-69
2022/12/21 10:25:55;;;;;;;20.23;10.95;;;14.10;99.90;;;;;;5075253;28;20045;-69
2022/12/21 10:28:36;;;;;;;21.60;11.07;;;14.10;99.90;;;;;;5070786;28;20049;-69
2022/12/21 10:31:06;;;;;;;19.70;9.98;;;14.00;99.90;;;;;;5056189;28;20479;-69
2022/12/21 10:33:44;;;;;;;22.23;10.57;;;13.90;98.80;;;;;;5059656;28;20044;-70
2022/12/21 10:36:15;;;;;;;20.08;10.02;;;13.90;99.90;;;;;;5059955;28;20391;-70
2022/12/21 10:38:40;;;;;;;19.80;10.27;;;14.10;99.90;;;;;;5056491;28;20037;-70
2022/12/21 10:41:09;;;;;;;21.50;10.07;;;14.10;99.90;;;;;;5055133;28;20045;-70
2022/12/21 10:43:37;;;;;;;22.35;10.65;;;14.00;98.90;;;;;;5061347;28;20127;-68
2022/12/21 10:46:05;;;;;;;20.02;10.80;;;14.10;99.90;;;;;;5075935;28;20209;-67
2022/12/21 10:48:32;;;;;;;22.52;11.52;;;14.10;99.00;;;;;;5058813;28;20551;-70
2022/12/21 10:51:18;;;;;;;23.42;11.18;;;13.90;98.90;;;;;;5075088;28;20075;-69
2022/12/21 10:54:04;;;;;;;22.42;11.27;;;14.10;99.90;;;;;;5062063;28;20037;-70
2022/12/21 10:56:31;;;;;;;19.55;10.88;;;14.30;99.90;;;;;;5075994;28;20048;-70
2022/12/21 10:59:18;;;;;;;20.27;10.90;;;14.10;99.10;;;;;;5075796;28;20041;-69
2022/12/21 11:01:44;;;;;;;21.77;10.40;;;14.00;99.90;;;;;;5075102;28;20049;-69
2022/12/21 11:04:13;;;;;;;21.40;10.30;;;;;;;;;;5072541;28;20052;-69
2022/12/21 11:06:54;;;;;;;22.70;10.90;;;14.20;99.90;;;;;;5034295;28;20049;-72
2022/12/21 11:09:33;;;;;;;21.77;11.00;;;14.20;98.20;;;;;;5035520;28;20055;-71
2022/12/21 11:12:21;;;;;;;20.17;10.10;;;14.40;98.20;;;;;;5035897;28;20053;-71
2022/12/21 11:14:48;;;;;;;18.17;9.98;;;14.30;99.90;;;;;;5061473;28;20051;-70
2022/12/21 11:17:32;;;;;;;21.95;10.55;;;;;;;;;;5075551;28;20036;-69
2022/12/21 11:20:19;;;;;;;19.95;10.35;;;14.10;98.70;;;;;;5072119;28;20040;-70
2022/12/21 11:22:45;;;;;;;21.58;10.63;;;14.30;99.90;;;;;;5073350;28;20056;-69
2022/12/21 11:25:16;;;;;;;22.08;10.77;;;14.30;99.90;;;;;;5071087;28;20051;-70
2022/12/21 11:27:44;;;;;;;21.40;10.57;;;14.20;98.60;;;;;;5052387;28;20049;-72
2022/12/21 11:30:19;;;;;;;18.08;10.52;;;14.50;99.90;;;;;;5018218;28;20049;-70
2022/12/21 11:32:46;;;;;;;19.45;10.48;;;;;;;;;;5034455;28;20411;-71
2022/12/21 11:35:21;;;;;;;22.50;11.85;;;14.70;99.90;;;;;;5049343;28;20316;-70
2022/12/21 11:38:11;;;;;;;19.52;11.52;;;14.40;98.70;;;;;;5055473;28;20452;-68
2022/12/21 11:40:37;;;;;;;25.17;11.02;;;14.60;99.90;;;;;;5025989;28;20053;-65
2022/12/21 11:43:05;;;;;;;21.10;10.88;;;14.30;99.80;;;;;;5054888;28;20409;-69
2022/12/21 11:45:52;;;;;;;23.00;11.10;;;14.30;98.50;;;;;;5053272;28;20056;-67
2022/12/21 11:48:47;;;;;;;21.13;11.52;;;14.60;99.80;;;;;;5074810;28;20144;-69
2022/12/21 11:51:18;;;;;;;24.60;12.40;;;14.90;99.90;;;;;;5041964;28;20076;-68
2022/12/21 11:54:04;;;;;;;20.10;12.05;;;14.70;98.10;;;;;;5072506;28;20115;-69
2022/12/21 11:56:36;;;;;;;25.58;11.98;;;14.90;99.90;;;;;;5071949;28;20056;-69
2022/12/21 11:59:29;;;;;;;20.25;11.23;;;14.90;98.10;;;;;;5074989;28;20092;-67
2022/12/21 12:02:07;;;;;;;22.25;11.63;;;14.90;99.80;;;;;;5048577;28;20045;-62
2022/12/21 12:04:54;;;;;;;24.70;12.13;;;14.60;99.70;;;;;;5046605;28;20150;-69
2022/12/21 12:07:24;;;;;;;23.50;11.75;;;15.20;99.80;;;;;;5071264;28;20135;-68
2022/12/21 12:10:21;;;;;;;22.23;11.45;;;14.90;99.80;;;;;;5074366;28;20048;-69
2022/12/21 12:12:53;;;;;;;24.85;12.45;;;;;;;;;;5074631;28;20459;-69
2022/12/21 12:15:31;;;;;;;25.33;11.73;;;15.10;98.10;;;;;;5074265;28;20045;-70
2022/12/21 12:18:19;;;;;;;22.33;10.98;;;14.90;98.70;;;;;;5062151;28;20077;-70
2022/12/21 12:21:03;;;;;;;19.95;10.95;;;15.10;99.90;;;;;;5033339;28;20053;-70
2022/12/21 12:23:29;;;;;;;19.80;10.77;;;;;;;;;;5034196;28;20045;-71
2022/12/21 12:25:58;;;;;;;21.85;10.65;;;15.10;99.90;;;;;;5034095;28;20045;-70
2022/12/21 12:28:34;;;;;;;20.25;10.98;;;15.10;98.20;;;;;;5069220;28;20041;-70
2022/12/21 12:31:36;;;;;;;20.13;11.05;;;15.20;98.10;;;;;;5074587;28;20075;-70
2022/12/21 12:34:20;;;;;;;21.02;11.98;;;;;;;;;;5073858;28;20551;-70
2022/12/21 12:36:55;;;;;;;20.58;10.55;;;14.90;99.30;;;;;;5034992;28;20132;-70
2022/12/21 12:39:41;;;;;;;20.38;10.32;;;14.90;98.60;;;;;;5057049;28;20044;-70
2022/12/21 12:42:08;;;;;;;19.83;10.32;;;15.00;99.80;;;;;;5072635;28;20051;-70
2022/12/21 12:45:17;;;;;;;21.08;11.63;;;15.00;98.60;;;;;;5072919;28;20044;-70
2022/12/21 12:48:01;;;;;;;20.95;10.25;;;15.00;99.80;;;;;;5008257;28;20046;-72
2022/12/21 12:50:36;;;;;;;24.10;12.88;;;14.90;99.40;;;;;;5010245;28;20052;-71
2022/12/21 12:53:24;;;;;;;20.63;10.63;;;14.80;97.70;;;;;;4998201;28;20049;-70
2022/12/21 12:56:19;;;;;;;24.05;13.02;;;14.70;99.60;;;;;;4992204;28;20100;-69
2022/12/21 12:59:05;;;;;;;22.02;11.95;;;14.40;99.60;;;;;;4983165;28;20058;-68
2022/12/21 13:01:33;;;;;;;23.77;12.20;;;14.80;99.70;;;;;;4992155;28;20392;-68
2022/12/21 13:04:33;;;;;;;24.08;12.00;;;14.90;97.90;;;;;;4992102;28;20058;-69
2022/12/21 13:07:12;;;;;;;21.70;11.98;;;14.70;98.40;;;;;;5000683;28;20049;-64
2022/12/21 13:09:42;;;;;;;22.58;11.40;;;14.80;99.60;;;;;;4996128;28;20116;-69
2022/12/21 13:12:44;;;;;;;24.30;12.60;;;14.60;98.40;;;;;;4994390;28;20046;-69
2022/12/21 13:15:15;;;;;;;22.42;11.65;;;14.80;98.40;;;;;;4981207;28;20089;-66
2022/12/21 13:17:55;;;;;;;19.65;10.73;;;15.00;99.70;;;;;;5009551;28;20057;-69